EST,Max TemperatureF,Mean TemperatureF,Min TemperatureF,Max Dew PointF,MeanDew PointF,Min DewpointF,Max Humidity, Mean Humidity, Min Humidity, Max Sea Level PressureIn, Mean Sea Level PressureIn, Min Sea Level PressureIn, Max VisibilityMiles, Mean VisibilityMiles, Min VisibilityMiles, Max Wind SpeedMPH, Mean Wind SpeedMPH, Max Gust SpeedMPH,PrecipitationIn, CloudCover, Events, WindDirDegrees
2011-11-1,53,45,37,41,39,36,100,83,58,30.14,30.11,30.04,10,8,5,16,5,23,0.00,5,,167
2011-11-2,55,50,42,48,45,37,100,86,51,30.06,30.02,29.99,10,6,1,21,7,31,0.00,8,Rain,270
2011-11-3,46,44,41,39,35,32,93,71,57,30.21,30.16,30.08,10,10,10,16,8,23,0.00,2,,8
2011-11-4,46,36,26,39,32,25,100,87,66,30.37,30.32,30.25,10,10,7,6,1,,0.00,0,,357
2011-11-5,51,42,32,34,31,27,100,71,40,30.32,30.26,30.14,10,10,10,12,7,20,0.00,0,,149
2011-11-6,60,51,42,46,36,27,67,59,49,30.09,30.00,29.88,10,10,10,20,10,26,0.00,2,,168
2011-11-7,55,50,44,46,33,23,77,53,29,30.19,30.11,29.97,10,10,10,24,13,33,0.00,0,,221
2011-11-8,44,42,39,41,38,36,100,89,76,30.23,30.19,30.12,10,9,2,10,5,,0.00,7,Rain,72
2011-11-9,46,42,37,45,40,36,100,94,87,30.07,29.71,29.35,10,7,1,29,11,38,0.00,8,Rain,50
2011-11-10,39,36,33,37,32,30,100,81,70,29.83,29.76,29.62,10,9,1,32,21,43,0.00,8,Rain-Snow,280
2011-11-11,39,36,33,32,28,25,93,74,60,29.86,29.83,29.72,10,10,4,18,12,25,0.00,7,Snow,267
2011-11-12,55,47,39,43,37,34,93,71,47,29.73,29.67,29.61,10,10,7,14,9,21,0.00,1,,202
2011-11-13,59,54,50,52,46,36,94,75,58,29.56,29.36,29.24,10,10,5,20,11,31,0.00,6,Rain,186
2011-11-14,50,46,42,43,37,36,82,71,58,29.60,29.53,29.42,10,10,10,16,11,24,0.00,4,,211
2011-11-15,50,44,39,39,35,30,81,70,51,29.75,29.67,29.60,10,10,7,17,8,24,0.00,2,,204
2011-11-16,45,40,34,37,26,18,73,62,50,29.97,29.83,29.69,10,10,10,25,17,34,0.00,6,,267
2011-11-17,34,32,29,26,19,16,82,60,50,30.07,29.97,29.93,10,10,4,23,14,33,0.00,8,Snow,280
2011-11-18,49,38,28,29,22,15,73,56,39,30.12,29.96,29.80,10,10,10,18,11,28,0.00,5,,194
2011-11-19,46,44,41,40,33,29,95,64,51,29.85,29.80,29.73,10,10,3,13,8,20,0.00,6,Rain,187
2011-11-20,39,34,30,38,27,20,95,77,64,30.37,30.17,29.73,10,10,5,22,12,30,0.00,8,Rain-Snow,336
2011-11-21,35,32,28,27,23,20,74,70,66,30.42,30.36,30.32,10,10,10,10,5,,0.00,8,,152
2011-11-22,38,32,27,32,28,24,88,80,71,30.36,30.18,30.00,10,10,10,18,8,25,0.00,2,,114
2011-11-23,41,33,25,36,32,25,99,85,74,30.12,30.07,30.00,10,9,7,14,6,22,0.00,6,,239
2011-11-24,46,42,39,40,38,36,90,84,74,30.07,30.02,29.90,7,5,3,17,9,25,0.00,6,,209
2011-11-25,54,49,44,43,41,40,87,76,64,29.90,29.85,29.80,10,9,7,17,11,23,0.00,3,,203
2011-11-26,52,50,47,49,45,42,96,85,72,29.91,29.82,29.74,10,9,3,13,6,22,0.00,8,Rain,156
2011-11-27,47,40,32,46,33,26,97,85,76,30.08,29.90,29.74,10,9,4,21,13,26,0.00,8,Rain-Snow,317
2011-11-28,38,35,32,31,28,26,92,79,70,30.16,30.12,30.07,10,10,7,12,7,18,0.00,8,,296
2011-11-29,38,35,32,32,28,24,86,75,62,30.10,30.03,29.89,10,10,10,23,11,33,0.00,6,,13
2011-11-30,40,36,31,30,27,22,79,69,53,30.03,29.93,29.86,10,10,10,21,14,29,0.00,4,,285